createdAt,value
2023-03-23T00:00:02.455Z,3.30
2023-03-23T00:02:39.448Z,2.72
2023-03-23T00:05:08.746Z,3.05
2023-03-23T00:07:37.362Z,2.50
2023-03-23T00:10:05.044Z,2.53
2023-03-23T00:12:36.419Z,2.90
2023-03-23T00:15:09.569Z,2.90
2023-03-23T00:17:36.979Z,2.92
2023-03-23T00:20:06.971Z,2.25
2023-03-23T00:22:38.985Z,2.40
2023-03-23T00:25:07.186Z,2.45
2023-03-23T00:27:34.584Z,3.08
2023-03-23T00:30:02.760Z,2.15
2023-03-23T00:32:30.139Z,2.22
2023-03-23T00:35:00.266Z,2.45
2023-03-23T00:37:28.241Z,2.42
2023-03-23T00:39:58.946Z,2.00
2023-03-23T00:42:26.658Z,2.40
2023-03-23T00:45:01.459Z,2.00
2023-03-23T00:47:29.209Z,2.20
2023-03-23T00:49:58.529Z,2.53
2023-03-23T00:52:25.890Z,2.78
2023-03-23T00:54:53.306Z,2.60
2023-03-23T00:57:20.919Z,3.30
2023-03-23T00:59:54.404Z,2.90
2023-03-23T01:02:33.669Z,2.45
2023-03-23T01:05:00.959Z,1.70
2023-03-23T01:07:29.632Z,2.50
2023-03-23T01:09:58.971Z,2.53
2023-03-23T01:12:27.034Z,1.85
2023-03-23T01:14:57.576Z,2.50
2023-03-23T01:17:25.118Z,2.60
2023-03-23T01:19:52.569Z,2.08
2023-03-23T01:22:19.960Z,2.40
2023-03-23T01:24:47.588Z,1.77
2023-03-23T01:27:14.895Z,2.60
2023-03-23T01:29:42.334Z,2.15
2023-03-23T01:32:09.756Z,2.10
2023-03-23T01:34:37.680Z,2.60
2023-03-23T01:37:05.077Z,2.28
2023-03-23T01:39:32.892Z,2.35
2023-03-23T01:42:00.798Z,1.90
2023-03-23T01:44:28.132Z,2.40
2023-03-23T01:47:06.372Z,2.10
2023-03-23T01:49:48.111Z,1.92
2023-03-23T01:52:19.591Z,2.20
2023-03-23T01:54:50.207Z,2.00
2023-03-23T01:57:20.870Z,2.40
2023-03-23T01:59:54.854Z,2.10
2023-03-23T02:02:26.648Z,2.55
2023-03-23T02:05:03.827Z,2.90
2023-03-23T02:07:33.744Z,2.53
2023-03-23T02:10:04.148Z,3.05
2023-03-23T02:12:34.325Z,2.90
2023-03-23T02:15:03.142Z,2.90
2023-03-23T02:18:06.339Z,2.95
2023-03-23T02:21:08.898Z,2.70
2023-03-23T02:24:04.293Z,2.50
2023-03-23T02:26:48.883Z,2.53
2023-03-23T02:29:53.440Z,2.75
2023-03-23T02:32:40.864Z,2.60
2023-03-23T02:35:23.874Z,2.63
2023-03-23T02:38:04.422Z,2.78
2023-03-23T02:40:44.440Z,2.60
2023-03-23T02:43:16.698Z,2.50
2023-03-23T02:48:17.008Z,2.55
2023-03-23T02:50:52.598Z,2.50
2023-03-23T02:53:26.582Z,2.78
2023-03-23T02:55:57.407Z,2.22
2023-03-23T02:58:28.926Z,2.53
2023-03-23T03:00:57.739Z,2.90
2023-03-23T03:03:30.488Z,2.40
2023-03-23T03:06:10.208Z,2.88
2023-03-23T03:08:52.839Z,2.80
2023-03-23T03:11:27.482Z,2.95
2023-03-23T03:14:02.240Z,2.00
2023-03-23T03:16:53.816Z,2.50
2023-03-23T03:19:30.450Z,2.72
2023-03-23T03:21:59.740Z,2.80
2023-03-23T03:24:42.250Z,2.90
2023-03-23T03:27:19.074Z,2.60
2023-03-23T03:29:56.663Z,2.78
2023-03-23T03:32:32.468Z,2.72
2023-03-23T03:35:05.169Z,3.03
2023-03-23T03:40:13.311Z,3.10
2023-03-23T03:42:44.078Z,2.83
2023-03-23T03:45:14.643Z,2.80
2023-03-23T03:47:42.381Z,3.10
2023-03-23T03:50:12.286Z,3.13
2023-03-23T03:52:41.658Z,2.75
2023-03-23T03:55:11.462Z,2.85
2023-03-23T03:57:42.886Z,2.90
2023-03-23T04:00:49.959Z,3.00
2023-03-23T04:03:22.130Z,2.90
2023-03-23T04:06:06.504Z,3.15
2023-03-23T04:08:37.065Z,3.08
2023-03-23T04:11:05.746Z,2.88
2023-03-23T04:13:54.180Z,2.25
2023-03-23T04:16:24.123Z,2.15
2023-03-23T04:18:51.782Z,2.28
2023-03-23T04:21:21.241Z,1.80
2023-03-23T04:23:51.163Z,2.63
2023-03-23T04:26:19.411Z,2.95
2023-03-23T04:28:52.149Z,3.00
2023-03-23T04:31:36.011Z,2.50
2023-03-23T04:34:27.001Z,2.50
2023-03-23T04:36:57.056Z,1.92
2023-03-23T04:39:30.329Z,2.53
2023-03-23T04:42:02.539Z,2.08
2023-03-23T04:45:04.037Z,2.13
2023-03-23T04:47:41.701Z,2.47
2023-03-23T04:50:25.464Z,2.47
2023-03-23T04:52:53.121Z,2.80
2023-03-23T04:55:21.374Z,2.92
2023-03-23T04:57:57.730Z,2.40
2023-03-23T05:00:51.010Z,2.72
2023-03-23T05:03:21.850Z,2.58
2023-03-23T05:05:53.547Z,2.75
2023-03-23T05:08:24.461Z,3.20
2023-03-23T05:11:00.712Z,2.95
2023-03-23T05:13:35.080Z,2.65
2023-03-23T05:16:06.621Z,2.28
2023-03-23T05:18:36.293Z,2.50
2023-03-23T05:21:07.013Z,2.67
2023-03-23T05:23:37.921Z,2.90
2023-03-23T05:26:16.843Z,2.78
2023-03-23T05:28:44.354Z,2.63
2023-03-23T05:31:20.452Z,2.88
2023-03-23T05:33:48.470Z,3.20
2023-03-23T05:36:42.110Z,2.67
2023-03-23T05:39:13.630Z,2.85
2023-03-23T05:41:57.764Z,2.90
2023-03-23T05:44:28.668Z,3.05
2023-03-23T05:47:01.938Z,2.60
2023-03-23T05:49:30.228Z,3.40
2023-03-23T05:51:57.890Z,2.90
2023-03-23T05:54:28.358Z,3.05
2023-03-23T05:56:55.734Z,3.00
2023-03-23T05:59:33.402Z,2.60
2023-03-23T06:02:15.967Z,2.90
2023-03-23T06:04:43.493Z,2.85
2023-03-23T06:07:20.609Z,2.83
2023-03-23T06:09:55.685Z,2.90
2023-03-23T06:12:26.081Z,2.80
2023-03-23T06:15:14.125Z,2.63
2023-03-23T06:18:06.917Z,2.28
2023-03-23T06:20:47.600Z,2.58
2023-03-23T06:23:36.633Z,2.60
2023-03-23T06:26:07.029Z,2.90
2023-03-23T06:28:35.837Z,2.90
2023-03-23T06:31:07.629Z,2.80
2023-03-23T06:33:38.149Z,2.65
2023-03-23T06:36:21.610Z,2.70
2023-03-23T06:38:55.212Z,2.40
2023-03-23T06:41:35.026Z,3.05
2023-03-23T06:44:03.107Z,2.60
2023-03-23T06:46:32.938Z,2.63
2023-03-23T06:49:21.171Z,2.80
2023-03-23T06:51:54.714Z,2.78
2023-03-23T06:54:23.319Z,3.10
2023-03-23T06:56:51.476Z,2.83
2023-03-23T06:59:19.187Z,2.85
2023-03-23T07:01:48.223Z,3.30
2023-03-23T07:04:16.157Z,3.30
2023-03-23T07:07:01.952Z,3.03
2023-03-23T07:09:42.836Z,3.25
2023-03-23T07:12:11.199Z,3.20
2023-03-23T07:14:45.072Z,2.80
2023-03-23T07:17:13.088Z,2.83
2023-03-23T07:19:50.147Z,2.70
2023-03-23T07:22:18.684Z,2.63
2023-03-23T07:24:51.991Z,2.90
2023-03-23T07:27:31.204Z,2.90
2023-03-23T07:30:01.702Z,2.90
2023-03-23T07:32:29.017Z,3.08
2023-03-23T07:34:57.554Z,3.30
2023-03-23T07:37:40.161Z,2.53
2023-03-23T07:40:16.534Z,2.55
2023-03-23T07:42:54.380Z,2.80
2023-03-23T07:45:35.686Z,2.60
2023-03-23T07:48:05.282Z,2.72
2023-03-23T07:50:36.824Z,3.00
2023-03-23T07:53:08.543Z,2.80
2023-03-23T07:55:38.742Z,2.83
2023-03-23T07:58:12.692Z,2.75
2023-03-23T08:00:41.800Z,2.40
2023-03-23T08:03:10.356Z,2.40
2023-03-23T08:05:48.497Z,2.63
2023-03-23T08:08:34.417Z,2.58
2023-03-23T08:11:21.406Z,2.63
2023-03-23T08:14:07.472Z,2.70
2023-03-23T08:16:37.780Z,2.40
2023-03-23T08:19:32.309Z,2.50
2023-03-23T08:22:13.218Z,2.60
2023-03-23T08:25:18.674Z,2.40
2023-03-23T08:28:12.133Z,2.35
2023-03-23T08:30:59.433Z,2.47
2023-03-23T08:33:43.109Z,2.63
2023-03-23T08:36:30.691Z,2.50
2023-03-23T08:39:19.467Z,2.63
2023-03-23T08:42:01.307Z,2.40
2023-03-23T08:44:53.424Z,2.40
2023-03-23T08:47:53.203Z,2.50
2023-03-23T08:50:39.116Z,2.70
2023-03-23T08:53:36.009Z,2.60
2023-03-23T08:56:22.280Z,2.30
2023-03-23T08:59:08.442Z,2.60
2023-03-23T09:01:43.429Z,2.30
2023-03-23T09:04:22.466Z,2.72
2023-03-23T09:07:12.368Z,2.50
2023-03-23T09:09:43.147Z,2.42
2023-03-23T09:12:15.375Z,2.45
2023-03-23T09:14:42.963Z,2.38
2023-03-23T09:17:14.022Z,2.53
2023-03-23T09:19:41.526Z,2.55
2023-03-23T09:22:09.500Z,2.20
2023-03-23T09:24:37.274Z,2.20
2023-03-23T09:27:05.989Z,2.08
2023-03-23T09:29:33.515Z,2.10
2023-03-23T09:32:01.365Z,2.08
2023-03-23T09:34:30.735Z,2.10
2023-03-23T09:36:58.283Z,2.33
2023-03-23T09:39:25.668Z,2.22
2023-03-23T09:42:13.133Z,2.17
2023-03-23T09:44:56.954Z,2.50
2023-03-23T09:47:29.737Z,2.10
2023-03-23T09:50:07.847Z,1.88
2023-03-23T09:52:58.527Z,2.47
2023-03-23T09:55:26.782Z,1.95
2023-03-23T09:58:28.494Z,1.90
2023-03-23T10:01:08.874Z,2.15
2023-03-23T10:03:48.337Z,2.28
2023-03-23T10:06:19.688Z,1.92
2023-03-23T10:08:57.273Z,1.70
2023-03-23T10:11:40.412Z,2.05
2023-03-23T10:16:56.432Z,2.60
2023-03-23T10:19:47.646Z,2.30
2023-03-23T10:22:21.854Z,2.28
2023-03-23T10:25:05.067Z,2.30
2023-03-23T10:27:41.126Z,2.50
2023-03-23T10:30:24.549Z,2.72
2023-03-23T10:32:58.134Z,2.97
2023-03-23T10:35:40.379Z,2.20
2023-03-23T10:40:50.914Z,2.70
2023-03-23T10:43:19.028Z,2.40
2023-03-23T10:46:00.572Z,2.10
2023-03-23T10:48:39.853Z,2.00
2023-03-23T10:51:14.464Z,2.28
2023-03-23T10:53:48.821Z,2.35
2023-03-23T10:56:32.402Z,2.17
2023-03-23T10:59:21.652Z,2.53
2023-03-23T11:01:52.523Z,2.10
2023-03-23T11:04:21.162Z,2.40
2023-03-23T11:06:53.799Z,2.20
2023-03-23T11:09:34.398Z,2.05
2023-03-23T11:12:02.343Z,2.53
2023-03-23T11:14:40.524Z,2.60
2023-03-23T11:17:26.972Z,2.33
2023-03-23T11:19:55.807Z,2.30
2023-03-23T11:22:29.682Z,2.40
2023-03-23T11:25:04.857Z,2.38
2023-03-23T11:27:33.703Z,2.50
2023-03-23T11:30:10.427Z,2.13
2023-03-23T11:32:38.973Z,2.50
2023-03-23T11:35:16.580Z,2.25
2023-03-23T11:37:49.180Z,2.53
2023-03-23T11:40:20.698Z,2.15
2023-03-23T11:42:59.694Z,2.00
2023-03-23T11:45:36.499Z,2.40
2023-03-23T11:48:31.666Z,2.30
2023-03-23T11:51:04.516Z,2.38
2023-03-23T11:53:57.435Z,2.10
2023-03-23T11:56:28.713Z,2.40
2023-03-23T11:58:59.079Z,2.90
2023-03-23T12:01:48.496Z,2.58
2023-03-23T12:04:31.076Z,2.72
2023-03-23T12:07:19.531Z,2.60
2023-03-23T12:10:35.307Z,2.28
2023-03-23T12:13:58.676Z,2.60
2023-03-23T12:16:42.106Z,2.58
2023-03-23T12:19:25.793Z,2.80
2023-03-23T12:22:14.891Z,2.60
2023-03-23T12:25:07.982Z,2.70
2023-03-23T12:30:48.867Z,2.53
2023-03-23T12:33:26.432Z,2.75
2023-03-23T12:36:16.146Z,2.50
2023-03-23T12:39:00.171Z,2.22
2023-03-23T12:41:51.161Z,2.50
2023-03-23T12:44:25.316Z,2.35
2023-03-23T12:47:17.518Z,2.63
2023-03-23T12:49:54.598Z,2.27
2023-03-23T12:52:28.509Z,2.30
2023-03-23T12:55:20.666Z,2.40
2023-03-23T12:58:12.525Z,2.00
2023-03-23T13:01:05.748Z,2.33
2023-03-23T13:03:45.702Z,2.30
2023-03-23T13:06:32.301Z,2.28
2023-03-23T13:09:05.253Z,2.40
2023-03-23T13:11:38.467Z,2.30
2023-03-23T13:14:42.681Z,2.25
2023-03-23T13:17:19.871Z,2.10
2023-03-23T13:19:49.708Z,2.40
2023-03-23T13:22:34.169Z,2.00
2023-03-23T13:25:07.932Z,2.20
2023-03-23T13:27:36.358Z,1.90
2023-03-23T13:30:05.778Z,2.45
2023-03-23T13:32:43.645Z,2.20
2023-03-23T13:35:18.518Z,2.00
2023-03-23T13:37:53.734Z,1.70
2023-03-23T13:40:33.221Z,1.70
2023-03-23T13:43:02.088Z,1.67
2023-03-23T13:45:30.683Z,1.77
2023-03-23T13:48:27.475Z,1.90
2023-03-23T13:51:01.760Z,1.90
2023-03-23T13:53:47.609Z,1.98
2023-03-23T13:56:25.015Z,2.10
2023-03-23T13:59:06.366Z,1.70
2023-03-23T14:01:37.313Z,1.65
2023-03-23T14:04:17.497Z,1.70
2023-03-23T14:06:47.054Z,1.85
2023-03-23T14:09:46.213Z,1.65
2023-03-23T14:12:21.580Z,1.90
2023-03-23T14:14:52.804Z,2.17
2023-03-23T14:17:26.152Z,2.00
2023-03-23T14:19:56.741Z,1.63
2023-03-23T14:22:37.618Z,2.20
2023-03-23T14:25:17.038Z,1.92
2023-03-23T14:27:47.319Z,1.90
2023-03-23T14:30:17.381Z,1.88
2023-03-23T14:32:45.632Z,1.92
2023-03-23T14:35:29.559Z,1.63
2023-03-23T14:37:58.364Z,1.98
2023-03-23T14:40:28.834Z,2.00
2023-03-23T14:42:57.823Z,2.10
2023-03-23T14:45:27.535Z,1.77
2023-03-23T14:48:01.647Z,2.08
2023-03-23T14:50:41.821Z,1.52
2023-03-23T14:53:24.316Z,2.17
2023-03-23T14:55:56.786Z,1.83
2023-03-23T14:58:25.682Z,1.77
2023-03-23T15:01:08.071Z,2.22
2023-03-23T15:03:43.255Z,1.80
2023-03-23T15:06:18.354Z,1.92
2023-03-23T15:08:49.106Z,1.80
2023-03-23T15:11:19.529Z,1.80
2023-03-23T15:13:50.845Z,1.67
2023-03-23T15:16:24.837Z,1.90
2023-03-23T15:18:56.607Z,2.00
2023-03-23T15:21:28.666Z,2.20
2023-03-23T15:23:56.648Z,1.70
2023-03-23T15:26:31.268Z,2.30
2023-03-23T15:29:15.194Z,1.70
2023-03-23T15:31:56.621Z,2.00
2023-03-23T15:34:26.927Z,2.13
2023-03-23T15:36:59.084Z,2.17
2023-03-23T15:39:28.764Z,2.17
2023-03-23T15:41:57.765Z,1.70
2023-03-23T15:44:33.774Z,1.90
2023-03-23T15:47:17.068Z,1.98
2023-03-23T15:49:46.577Z,2.20
2023-03-23T15:52:16.593Z,2.00
2023-03-23T15:54:50.325Z,2.05
2023-03-23T15:57:17.684Z,1.90
2023-03-23T15:59:45.192Z,2.10
2023-03-23T16:02:22.990Z,2.25
2023-03-23T16:04:52.079Z,1.80
2023-03-23T16:07:23.790Z,1.83
2023-03-23T16:09:51.106Z,2.00
2023-03-23T16:12:18.469Z,2.10
2023-03-23T16:14:45.810Z,2.20
2023-03-23T16:17:18.262Z,1.90
2023-03-23T16:19:45.878Z,2.00
2023-03-23T16:22:13.285Z,1.90
2023-03-23T16:24:40.778Z,1.80
2023-03-23T16:27:11.111Z,1.60
2023-03-23T16:29:54.802Z,1.90
2023-03-23T16:32:26.037Z,2.38
2023-03-23T16:34:53.298Z,2.00
2023-03-23T16:37:21.078Z,1.90
2023-03-23T16:39:48.412Z,1.80
2023-03-23T16:42:15.721Z,1.65
2023-03-23T16:44:42.913Z,2.10
2023-03-23T16:47:10.289Z,2.00
2023-03-23T16:49:37.625Z,1.88
2023-03-23T16:52:04.991Z,2.10
2023-03-23T16:54:32.250Z,1.98
2023-03-23T16:56:59.629Z,2.00
2023-03-23T16:59:28.918Z,2.10
2023-03-23T17:01:56.500Z,2.00
2023-03-23T17:04:24.006Z,1.80
2023-03-23T17:06:52.086Z,1.88
2023-03-23T17:09:19.499Z,1.85
2023-03-23T17:11:46.894Z,1.67
2023-03-23T17:14:14.265Z,1.90
2023-03-23T17:16:41.671Z,1.60
2023-03-23T17:19:09.410Z,1.52
2023-03-23T17:21:36.910Z,1.70
2023-03-23T17:24:04.516Z,1.80
2023-03-23T17:26:31.829Z,1.83
2023-03-23T17:28:59.240Z,1.90
2023-03-23T17:31:26.945Z,1.85
2023-03-23T17:33:54.421Z,2.00
2023-03-23T17:36:22.580Z,1.70
2023-03-23T17:38:50.987Z,1.60
2023-03-23T17:41:21.335Z,1.35
2023-03-23T17:43:48.810Z,1.50
2023-03-23T17:46:16.694Z,2.03
2023-03-23T17:48:44.726Z,1.75
2023-03-23T17:51:12.124Z,2.10
2023-03-23T17:53:39.525Z,2.35
2023-03-23T17:56:07.478Z,1.90
2023-03-23T17:58:36.084Z,2.30
2023-03-23T18:01:04.060Z,1.75
2023-03-23T18:03:32.114Z,1.70
2023-03-23T18:06:02.456Z,1.92
2023-03-23T18:08:30.130Z,1.67
2023-03-23T18:10:58.697Z,2.35
2023-03-23T18:13:27.703Z,1.60
2023-03-23T18:15:56.925Z,2.25
2023-03-23T18:18:25.614Z,2.20
2023-03-23T18:21:04.864Z,1.90
2023-03-23T18:23:39.095Z,2.10
2023-03-23T18:26:13.567Z,2.00
2023-03-23T18:28:41.230Z,2.00
2023-03-23T18:31:13.385Z,2.00
2023-03-23T18:33:48.095Z,2.08
2023-03-23T18:36:18.115Z,2.42
2023-03-23T18:38:46.866Z,2.20
2023-03-23T18:41:15.239Z,2.33
2023-03-23T18:43:42.746Z,2.20
2023-03-23T18:46:10.224Z,2.50
2023-03-23T18:48:38.026Z,2.60
2023-03-23T18:51:05.957Z,2.55
2023-03-23T18:53:33.532Z,2.70
2023-03-23T18:56:19.273Z,2.30
2023-03-23T18:58:46.998Z,2.53
2023-03-23T19:01:17.060Z,2.40
2023-03-23T19:03:45.797Z,2.40
2023-03-23T19:06:20.483Z,2.60
2023-03-23T19:08:49.224Z,2.35
2023-03-23T19:11:17.508Z,2.28
2023-03-23T19:13:58.195Z,2.40
2023-03-23T19:16:29.498Z,2.40
2023-03-23T19:18:56.905Z,2.25
2023-03-23T19:21:25.738Z,2.00
2023-03-23T19:23:54.937Z,1.98
2023-03-23T19:26:36.610Z,2.20
2023-03-23T19:31:38.934Z,1.63
2023-03-23T19:34:07.151Z,1.40
2023-03-23T19:36:35.644Z,2.13
2023-03-23T19:39:05.256Z,2.60
2023-03-23T19:41:33.968Z,2.50
2023-03-23T19:44:04.612Z,2.25
2023-03-23T19:46:33.018Z,2.70
2023-03-23T19:49:01.367Z,2.30
2023-03-23T19:51:29.019Z,2.70
2023-03-23T19:53:58.135Z,2.60
2023-03-23T19:56:26.024Z,2.88
2023-03-23T19:58:53.494Z,2.60
2023-03-23T20:01:21.599Z,2.80
2023-03-23T20:03:49.027Z,2.70
2023-03-23T20:06:16.758Z,2.80
2023-03-23T20:08:48.747Z,2.70
2023-03-23T20:11:19.436Z,2.75
2023-03-23T20:13:49.114Z,2.88
2023-03-23T20:16:17.851Z,2.83
2023-03-23T20:18:46.750Z,2.83
2023-03-23T20:21:19.610Z,2.78
2023-03-23T20:23:49.393Z,2.60
2023-03-23T20:26:19.859Z,2.83
2023-03-23T20:28:47.776Z,2.60
2023-03-23T20:31:24.987Z,2.70
2023-03-23T20:34:01.126Z,3.08
2023-03-23T20:36:35.299Z,2.85
2023-03-23T20:39:10.934Z,3.10
2023-03-23T20:41:39.220Z,2.85
2023-03-23T20:44:09.231Z,2.83
2023-03-23T20:46:36.906Z,2.90
2023-03-23T20:49:06.035Z,3.30
2023-03-23T20:51:33.897Z,2.58
2023-03-23T20:54:02.569Z,2.63
2023-03-23T20:56:30.134Z,2.58
2023-03-23T20:58:57.894Z,3.10
2023-03-23T21:01:26.487Z,3.22
2023-03-23T21:03:57.480Z,3.10
2023-03-23T21:06:28.701Z,3.25
2023-03-23T21:08:57.556Z,3.30
2023-03-23T21:11:27.340Z,3.42
2023-03-23T21:13:54.978Z,3.33
2023-03-23T21:16:24.450Z,3.50
2023-03-23T21:18:52.131Z,3.25
2023-03-23T21:21:19.713Z,3.00
2023-03-23T21:23:52.579Z,3.25
2023-03-23T21:26:27.780Z,3.45
2023-03-23T21:29:00.610Z,3.08
2023-03-23T21:31:32.036Z,2.75
2023-03-23T21:33:59.879Z,3.13
2023-03-23T21:36:27.909Z,3.38
2023-03-23T21:38:56.164Z,3.55
2023-03-23T21:41:24.596Z,2.97
2023-03-23T21:43:52.295Z,3.20
2023-03-23T21:46:20.093Z,3.42
2023-03-23T21:48:51.872Z,3.88
2023-03-23T21:51:30.243Z,3.43
2023-03-23T21:53:58.301Z,3.45
2023-03-23T21:56:27.791Z,3.58
2023-03-23T21:58:56.959Z,3.50
2023-03-23T22:01:25.225Z,4.07
2023-03-23T22:03:52.625Z,3.53
2023-03-23T22:06:27.378Z,3.70
2023-03-23T22:08:55.337Z,3.60
2023-03-23T22:11:26.994Z,3.17
2023-03-23T22:13:55.979Z,3.10
2023-03-23T22:16:24.421Z,3.40
2023-03-23T22:18:53.595Z,3.80
2023-03-23T22:21:26.720Z,3.30
2023-03-23T22:23:56.253Z,3.45
2023-03-23T22:26:24.909Z,3.58
2023-03-23T22:28:52.423Z,3.35
2023-03-23T22:31:24.322Z,3.63
2023-03-23T22:33:56.958Z,3.30
2023-03-23T22:38:52.395Z,3.70
2023-03-23T22:41:26.547Z,3.90
2023-03-23T22:43:54.682Z,3.78
2023-03-23T22:46:23.229Z,3.78
2023-03-23T22:48:50.572Z,3.55
2023-03-23T22:51:19.121Z,3.60
2023-03-23T22:53:46.932Z,4.03
2023-03-23T22:56:14.843Z,3.88
2023-03-23T22:58:42.140Z,3.53
2023-03-23T23:01:13.997Z,4.03
2023-03-23T23:03:41.532Z,4.15
2023-03-23T23:06:11.790Z,4.00
2023-03-23T23:08:39.872Z,3.97
2023-03-23T23:11:12.892Z,3.95
2023-03-23T23:13:41.686Z,3.90
2023-03-23T23:16:11.517Z,4.03
2023-03-23T23:18:41.157Z,3.78
2023-03-23T23:21:11.593Z,3.80
2023-03-23T23:23:39.227Z,4.03
2023-03-23T23:26:07.612Z,3.75
2023-03-23T23:28:36.511Z,3.63
2023-03-23T23:31:04.636Z,4.45
2023-03-23T23:33:32.445Z,4.00
2023-03-23T23:35:59.921Z,3.47
2023-03-23T23:38:27.320Z,3.85
2023-03-23T23:40:54.936Z,3.90
2023-03-23T23:43:22.524Z,3.97
2023-03-23T23:45:49.883Z,3.83
2023-03-23T23:48:17.453Z,3.78
2023-03-23T23:50:45.006Z,3.70
2023-03-23T23:53:13.481Z,3.67
2023-03-23T23:55:40.982Z,3.50
2023-03-23T23:58:08.654Z,4.28
